Terminal Aerodrome Forecast
Issued by NWS

Home | Current Version | Previous Version | Text Only | Print | Product List | Glossary On
Versions: 1 2 3 4 5 6 7 8 9 10 11 12 13 14
000
FTUS45 KRIW 290526
TAFBPI
TAF
KBPI 290526Z 2906/3006 VRB06KT P6SM FEW120
      TEMPO 2912/2916 5SM FU
     FM292100 32012G20KT P6SM FEW120
     FM300200 34008KT P6SM FEW120=

USA.gov is the U.S. government's official web portal to all federal, state and local government web resources and services.